sensor_id;sensor_type;location;lat;lon;timestamp;temperature;humidity
34542;DHT22;20784;51.332;12.410;2023-07-13T00:01:52;23.60;99.90
34542;DHT22;20784;51.332;12.410;2023-07-13T00:04:18;23.60;99.90
34542;DHT22;20784;51.332;12.410;2023-07-13T00:06:48;23.50;99.90
34542;DHT22;20784;51.332;12.410;2023-07-13T00:09:14;23.50;99.90
34542;DHT22;20784;51.332;12.410;2023-07-13T00:11:40;23.40;99.90
34542;DHT22;20784;51.332;12.410;2023-07-13T00:14:06;23.50;99.90
34542;DHT22;20784;51.332;12.410;2023-07-13T00:16:35;23.40;99.90
34542;DHT22;20784;51.332;12.410;2023-07-13T00:19:03;23.40;99.90
34542;DHT22;20784;51.332;12.410;2023-07-13T00:21:29;23.40;99.90
34542;DHT22;20784;51.332;12.410;2023-07-13T00:23:54;23.50;99.90
34542;DHT22;20784;51.332;12.410;2023-07-13T00:26:20;23.40;99.90
34542;DHT22;20784;51.332;12.410;2023-07-13T00:28:45;23.50;99.90
34542;DHT22;20784;51.332;12.410;2023-07-13T00:31:12;23.50;99.90
34542;DHT22;20784;51.332;12.410;2023-07-13T00:33:37;23.50;99.90
34542;DHT22;20784;51.332;12.410;2023-07-13T00:36:03;23.40;99.90
34542;DHT22;20784;51.332;12.410;2023-07-13T00:38:32;23.50;99.90
34542;DHT22;20784;51.332;12.410;2023-07-13T00:40:58;23.50;99.90
34542;DHT22;20784;51.332;12.410;2023-07-13T00:43:37;23.50;99.90
34542;DHT22;20784;51.332;12.410;2023-07-13T00:46:23;23.50;99.90
34542;DHT22;20784;51.332;12.410;2023-07-13T00:48:50;23.40;99.90
34542;DHT22;20784;51.332;12.410;2023-07-13T00:51:17;23.30;99.90
34542;DHT22;20784;51.332;12.410;2023-07-13T00:53:44;23.30;99.90
34542;DHT22;20784;51.332;12.410;2023-07-13T00:56:10;23.30;99.90
34542;DHT22;20784;51.332;12.410;2023-07-13T00:58:48;23.30;99.90
34542;DHT22;20784;51.332;12.410;2023-07-13T01:01:20;23.40;99.90
34542;DHT22;20784;51.332;12.410;2023-07-13T01:03:53;23.40;99.90
34542;DHT22;20784;51.332;12.410;2023-07-13T01:06:29;23.40;99.90
34542;DHT22;20784;51.332;12.410;2023-07-13T01:09:11;23.30;99.90
34542;DHT22;20784;51.332;12.410;2023-07-13T01:11:37;23.30;99.90
34542;DHT22;20784;51.332;12.410;2023-07-13T01:14:03;23.30;99.90
34542;DHT22;20784;51.332;12.410;2023-07-13T01:16:34;23.20;99.90
34542;DHT22;20784;51.332;12.410;2023-07-13T01:22:07;23.20;99.90
34542;DHT22;20784;51.332;12.410;2023-07-13T01:24:36;23.00;99.90
34542;DHT22;20784;51.332;12.410;2023-07-13T01:27:05;22.90;99.90
34542;DHT22;20784;51.332;12.410;2023-07-13T01:29:31;22.80;99.90
34542;DHT22;20784;51.332;12.410;2023-07-13T01:32:06;22.70;99.90
34542;DHT22;20784;51.332;12.410;2023-07-13T01:34:33;22.60;99.90
34542;DHT22;20784;51.332;12.410;2023-07-13T01:37:03;22.50;99.90
34542;DHT22;20784;51.332;12.410;2023-07-13T01:39:28;22.40;99.90
34542;DHT22;20784;51.332;12.410;2023-07-13T01:41:54;22.40;99.90
34542;DHT22;20784;51.332;12.410;2023-07-13T01:44:20;22.40;99.90
34542;DHT22;20784;51.332;12.410;2023-07-13T01:46:45;22.40;99.90
34542;DHT22;20784;51.332;12.410;2023-07-13T01:49:14;22.30;99.90
34542;DHT22;20784;51.332;12.410;2023-07-13T01:51:48;22.30;99.90
34542;DHT22;20784;51.332;12.410;2023-07-13T01:54:31;22.30;99.90
34542;DHT22;20784;51.332;12.410;2023-07-13T01:56:56;22.30;99.90
34542;DHT22;20784;51.332;12.410;2023-07-13T01:59:22;22.30;99.90
34542;DHT22;20784;51.332;12.410;2023-07-13T02:01:50;22.40;99.90
34542;DHT22;20784;51.332;12.410;2023-07-13T02:04:18;22.30;99.90
34542;DHT22;20784;51.332;12.410;2023-07-13T02:06:46;22.30;99.90
34542;DHT22;20784;51.332;12.410;2023-07-13T02:09:14;22.30;99.90
34542;DHT22;20784;51.332;12.410;2023-07-13T02:14:33;22.30;99.90
34542;DHT22;20784;51.332;12.410;2023-07-13T02:16:59;22.10;99.90
34542;DHT22;20784;51.332;12.410;2023-07-13T02:19:33;22.10;99.90
34542;DHT22;20784;51.332;12.410;2023-07-13T02:22:09;22.10;99.90
34542;DHT22;20784;51.332;12.410;2023-07-13T02:25:00;22.00;99.90
34542;DHT22;20784;51.332;12.410;2023-07-13T02:30:19;22.00;99.90
34542;DHT22;20784;51.332;12.410;2023-07-13T02:32:52;22.00;99.90
34542;DHT22;20784;51.332;12.410;2023-07-13T02:35:32;22.00;99.90
34542;DHT22;20784;51.332;12.410;2023-07-13T02:38:21;22.00;99.90
34542;DHT22;20784;51.332;12.410;2023-07-13T02:43:42;21.90;99.90
34542;DHT22;20784;51.332;12.410;2023-07-13T02:48:51;21.70;99.90
34542;DHT22;20784;51.332;12.410;2023-07-13T02:51:45;21.60;99.90
34542;DHT22;20784;51.332;12.410;2023-07-13T02:54:24;21.50;99.90
34542;DHT22;20784;51.332;12.410;2023-07-13T02:56:53;21.60;99.90
34542;DHT22;20784;51.332;12.410;2023-07-13T02:59:21;21.50;99.90
34542;DHT22;20784;51.332;12.410;2023-07-13T03:01:49;21.40;99.90
34542;DHT22;20784;51.332;12.410;2023-07-13T03:04:15;21.40;99.90
34542;DHT22;20784;51.332;12.410;2023-07-13T03:06:47;21.20;99.90
34542;DHT22;20784;51.332;12.410;2023-07-13T03:09:12;21.20;99.90
34542;DHT22;20784;51.332;12.410;2023-07-13T03:11:40;21.10;99.90
34542;DHT22;20784;51.332;12.410;2023-07-13T03:14:13;21.10;99.90
34542;DHT22;20784;51.332;12.410;2023-07-13T03:16:48;20.90;99.90
34542;DHT22;20784;51.332;12.410;2023-07-13T03:19:16;20.90;99.90
34542;DHT22;20784;51.332;12.410;2023-07-13T03:21:41;20.90;99.90
34542;DHT22;20784;51.332;12.410;2023-07-13T03:24:38;20.80;99.90
34542;DHT22;20784;51.332;12.410;2023-07-13T03:27:06;20.70;99.90
34542;DHT22;20784;51.332;12.410;2023-07-13T03:29:31;20.70;99.90
34542;DHT22;20784;51.332;12.410;2023-07-13T03:38:11;20.60;99.90
34542;DHT22;20784;51.332;12.410;2023-07-13T03:44:26;20.60;99.90
34542;DHT22;20784;51.332;12.410;2023-07-13T03:46:30;20.50;99.90
34542;DHT22;20784;51.332;12.410;2023-07-13T03:49:01;20.50;99.90
34542;DHT22;20784;51.332;12.410;2023-07-13T03:51:28;20.60;99.90
34542;DHT22;20784;51.332;12.410;2023-07-13T03:53:53;20.60;99.90
34542;DHT22;20784;51.332;12.410;2023-07-13T03:59:52;20.50;99.90
34542;DHT22;20784;51.332;12.410;2023-07-13T04:05:12;20.30;99.90
34542;DHT22;20784;51.332;12.410;2023-07-13T04:16:13;20.20;99.90
34542;DHT22;20784;51.332;12.410;2023-07-13T04:21:51;20.30;99.90
34542;DHT22;20784;51.332;12.410;2023-07-13T04:27:22;20.20;99.90
34542;DHT22;20784;51.332;12.410;2023-07-13T04:29:50;20.20;99.90
34542;DHT22;20784;51.332;12.410;2023-07-13T04:32:26;20.30;99.90
34542;DHT22;20784;51.332;12.410;2023-07-13T04:35:07;20.30;99.90
34542;DHT22;20784;51.332;12.410;2023-07-13T04:37:36;20.30;99.90
34542;DHT22;20784;51.332;12.410;2023-07-13T04:40:36;20.30;99.90
34542;DHT22;20784;51.332;12.410;2023-07-13T04:43:32;20.40;99.90
34542;DHT22;20784;51.332;12.410;2023-07-13T04:46:09;20.40;99.90
34542;DHT22;20784;51.332;12.410;2023-07-13T04:48:42;20.50;99.90
34542;DHT22;20784;51.332;12.410;2023-07-13T04:51:08;20.60;99.90
34542;DHT22;20784;51.332;12.410;2023-07-13T04:53:34;20.70;99.90
34542;DHT22;20784;51.332;12.410;2023-07-13T04:56:00;20.70;99.90
34542;DHT22;20784;51.332;12.410;2023-07-13T04:58:28;20.70;99.90
34542;DHT22;20784;51.332;12.410;2023-07-13T05:00:59;20.80;99.90
34542;DHT22;20784;51.332;12.410;2023-07-13T05:03:24;20.80;99.90
34542;DHT22;20784;51.332;12.410;2023-07-13T05:05:57;20.80;99.90
34542;DHT22;20784;51.332;12.410;2023-07-13T05:08:22;20.80;99.90
34542;DHT22;20784;51.332;12.410;2023-07-13T05:10:51;20.90;99.90
34542;DHT22;20784;51.332;12.410;2023-07-13T05:13:22;20.90;99.90
34542;DHT22;20784;51.332;12.410;2023-07-13T05:16:03;21.00;99.90
34542;DHT22;20784;51.332;12.410;2023-07-13T05:18:35;21.10;99.90
34542;DHT22;20784;51.332;12.410;2023-07-13T05:24:11;21.20;99.90
34542;DHT22;20784;51.332;12.410;2023-07-13T05:30:28;21.40;99.90
34542;DHT22;20784;51.332;12.410;2023-07-13T05:32:54;21.40;99.90
34542;DHT22;20784;51.332;12.410;2023-07-13T05:35:27;21.50;99.90
34542;DHT22;20784;51.332;12.410;2023-07-13T05:37:55;21.50;99.90
34542;DHT22;20784;51.332;12.410;2023-07-13T05:40:21;21.50;99.90
34542;DHT22;20784;51.332;12.410;2023-07-13T05:42:47;21.60;99.90
34542;DHT22;20784;51.332;12.410;2023-07-13T05:45:20;21.70;99.90
34542;DHT22;20784;51.332;12.410;2023-07-13T05:47:58;21.80;99.90
34542;DHT22;20784;51.332;12.410;2023-07-13T05:50:26;21.90;99.90
34542;DHT22;20784;51.332;12.410;2023-07-13T05:56:13;21.90;99.90
34542;DHT22;20784;51.332;12.410;2023-07-13T05:59:05;22.10;99.90
34542;DHT22;20784;51.332;12.410;2023-07-13T06:01:30;22.20;99.90
34542;DHT22;20784;51.332;12.410;2023-07-13T06:09:57;22.60;99.90
34542;DHT22;20784;51.332;12.410;2023-07-13T06:12:45;22.70;99.90
34542;DHT22;20784;51.332;12.410;2023-07-13T06:15:14;22.80;99.90
34542;DHT22;20784;51.332;12.410;2023-07-13T06:17:44;22.80;99.90
34542;DHT22;20784;51.332;12.410;2023-07-13T06:22:46;22.70;99.90
34542;DHT22;20784;51.332;12.410;2023-07-13T06:25:12;22.80;99.90
34542;DHT22;20784;51.332;12.410;2023-07-13T06:27:40;22.80;99.90
34542;DHT22;20784;51.332;12.410;2023-07-13T06:30:31;22.90;99.90
34542;DHT22;20784;51.332;12.410;2023-07-13T06:33:22;23.00;99.90
34542;DHT22;20784;51.332;12.410;2023-07-13T06:36:01;23.10;99.90
34542;DHT22;20784;51.332;12.410;2023-07-13T06:38:35;23.10;99.90
34542;DHT22;20784;51.332;12.410;2023-07-13T06:41:09;23.10;99.90
34542;DHT22;20784;51.332;12.410;2023-07-13T06:43:55;23.10;99.90
34542;DHT22;20784;51.332;12.410;2023-07-13T06:46:36;23.20;99.90
34542;DHT22;20784;51.332;12.410;2023-07-13T06:49:04;23.20;99.90
34542;DHT22;20784;51.332;12.410;2023-07-13T06:51:42;23.10;99.90
34542;DHT22;20784;51.332;12.410;2023-07-13T06:54:10;23.20;99.90
34542;DHT22;20784;51.332;12.410;2023-07-13T06:56:36;23.30;99.90
34542;DHT22;20784;51.332;12.410;2023-07-13T06:59:19;23.30;99.90
34542;DHT22;20784;51.332;12.410;2023-07-13T07:01:52;23.40;99.90
34542;DHT22;20784;51.332;12.410;2023-07-13T07:04:29;23.40;99.90
34542;DHT22;20784;51.332;12.410;2023-07-13T07:07:03;23.50;99.90
34542;DHT22;20784;51.332;12.410;2023-07-13T07:09:40;23.60;99.90
34542;DHT22;20784;51.332;12.410;2023-07-13T07:12:08;23.70;99.90
34542;DHT22;20784;51.332;12.410;2023-07-13T07:14:46;23.80;99.90
34542;DHT22;20784;51.332;12.410;2023-07-13T07:20:19;24.00;99.90
34542;DHT22;20784;51.332;12.410;2023-07-13T07:25:27;24.30;99.90
34542;DHT22;20784;51.332;12.410;2023-07-13T07:27:57;24.40;99.90
34542;DHT22;20784;51.332;12.410;2023-07-13T07:30:25;24.40;99.90
34542;DHT22;20784;51.332;12.410;2023-07-13T07:33:17;24.40;99.90
34542;DHT22;20784;51.332;12.410;2023-07-13T07:35:46;24.40;99.90
34542;DHT22;20784;51.332;12.410;2023-07-13T07:38:14;24.40;99.90
34542;DHT22;20784;51.332;12.410;2023-07-13T07:40:40;24.40;99.90
34542;DHT22;20784;51.332;12.410;2023-07-13T07:43:06;24.30;99.90
34542;DHT22;20784;51.332;12.410;2023-07-13T07:45:35;24.30;99.90
34542;DHT22;20784;51.332;12.410;2023-07-13T07:48:09;24.20;99.90
34542;DHT22;20784;51.332;12.410;2023-07-13T07:50:35;24.20;99.90
34542;DHT22;20784;51.332;12.410;2023-07-13T07:53:03;24.40;99.90
34542;DHT22;20784;51.332;12.410;2023-07-13T07:55:32;24.50;99.90
34542;DHT22;20784;51.332;12.410;2023-07-13T07:58:07;24.80;99.90
34542;DHT22;20784;51.332;12.410;2023-07-13T08:00:33;24.80;99.90
34542;DHT22;20784;51.332;12.410;2023-07-13T08:03:04;24.90;99.90
34542;DHT22;20784;51.332;12.410;2023-07-13T08:08:27;24.90;99.90
34542;DHT22;20784;51.332;12.410;2023-07-13T08:10:55;25.00;99.90
34542;DHT22;20784;51.332;12.410;2023-07-13T08:13:21;25.00;99.90
34542;DHT22;20784;51.332;12.410;2023-07-13T08:15:50;25.10;99.90
34542;DHT22;20784;51.332;12.410;2023-07-13T08:18:42;25.30;99.90
34542;DHT22;20784;51.332;12.410;2023-07-13T08:21:10;25.40;99.90
34542;DHT22;20784;51.332;12.410;2023-07-13T08:23:53;25.50;99.90
34542;DHT22;20784;51.332;12.410;2023-07-13T08:26:19;25.60;99.90
34542;DHT22;20784;51.332;12.410;2023-07-13T08:28:45;25.70;99.90
34542;DHT22;20784;51.332;12.410;2023-07-13T08:31:21;26.00;99.90
34542;DHT22;20784;51.332;12.410;2023-07-13T08:33:46;26.30;99.90
34542;DHT22;20784;51.332;12.410;2023-07-13T08:36:12;26.50;99.90
34542;DHT22;20784;51.332;12.410;2023-07-13T08:38:37;26.40;99.90
34542;DHT22;20784;51.332;12.410;2023-07-13T08:41:16;26.40;99.90
34542;DHT22;20784;51.332;12.410;2023-07-13T08:43:45;26.70;99.90
34542;DHT22;20784;51.332;12.410;2023-07-13T08:46:19;27.00;99.90
34542;DHT22;20784;51.332;12.410;2023-07-13T08:48:48;27.10;99.90
34542;DHT22;20784;51.332;12.410;2023-07-13T08:53:42;27.40;99.90
34542;DHT22;20784;51.332;12.410;2023-07-13T08:56:11;27.10;99.90
34542;DHT22;20784;51.332;12.410;2023-07-13T08:58:41;27.10;99.90
34542;DHT22;20784;51.332;12.410;2023-07-13T09:01:12;26.90;99.90
34542;DHT22;20784;51.332;12.410;2023-07-13T09:06:46;26.40;99.90
34542;DHT22;20784;51.332;12.410;2023-07-13T09:14:20;27.20;99.90
34542;DHT22;20784;51.332;12.410;2023-07-13T09:16:51;27.60;99.90
34542;DHT22;20784;51.332;12.410;2023-07-13T09:19:20;27.70;99.90
34542;DHT22;20784;51.332;12.410;2023-07-13T09:21:48;27.50;99.90
34542;DHT22;20784;51.332;12.410;2023-07-13T09:26:50;26.20;99.90
34542;DHT22;20784;51.332;12.410;2023-07-13T09:32:25;26.30;99.90
34542;DHT22;20784;51.332;12.410;2023-07-13T09:35:00;26.80;99.90
34542;DHT22;20784;51.332;12.410;2023-07-13T09:40:24;27.10;99.90
34542;DHT22;20784;51.332;12.410;2023-07-13T09:48:33;28.20;99.90
34542;DHT22;20784;51.332;12.410;2023-07-13T09:54:02;28.10;99.90
34542;DHT22;20784;51.332;12.410;2023-07-13T09:56:45;28.00;99.90
34542;DHT22;20784;51.332;12.410;2023-07-13T09:59:40;27.90;99.90
34542;DHT22;20784;51.332;12.410;2023-07-13T10:02:31;27.80;99.90
34542;DHT22;20784;51.332;12.410;2023-07-13T10:05:22;27.40;99.70
34542;DHT22;20784;51.332;12.410;2023-07-13T10:13:48;27.00;99.90
34542;DHT22;20784;51.332;12.410;2023-07-13T10:16:32;27.00;99.90
34542;DHT22;20784;51.332;12.410;2023-07-13T10:19:02;27.10;99.90
34542;DHT22;20784;51.332;12.410;2023-07-13T10:21:47;27.30;99.90
34542;DHT22;20784;51.332;12.410;2023-07-13T10:24:25;27.50;99.90
34542;DHT22;20784;51.332;12.410;2023-07-13T10:29:46;28.00;99.90
34542;DHT22;20784;51.332;12.410;2023-07-13T10:32:13;28.20;99.20
34542;DHT22;20784;51.332;12.410;2023-07-13T10:34:44;28.20;97.60
34542;DHT22;20784;51.332;12.410;2023-07-13T10:37:31;28.50;97.90
34542;DHT22;20784;51.332;12.410;2023-07-13T10:40:04;28.90;98.90
34542;DHT22;20784;51.332;12.410;2023-07-13T10:45:22;29.60;99.90
34542;DHT22;20784;51.332;12.410;2023-07-13T10:47:49;29.70;98.90
34542;DHT22;20784;51.332;12.410;2023-07-13T10:53:43;29.80;98.50
34542;DHT22;20784;51.332;12.410;2023-07-13T11:03:14;30.00;97.70
34542;DHT22;20784;51.332;12.410;2023-07-13T11:15:26;29.80;95.40
34542;DHT22;20784;51.332;12.410;2023-07-13T11:21:19;30.30;93.50
34542;DHT22;20784;51.332;12.410;2023-07-13T11:24:13;30.60;91.50
34542;DHT22;20784;51.332;12.410;2023-07-13T11:26:42;30.90;91.10
34542;DHT22;20784;51.332;12.410;2023-07-13T11:31:52;31.00;90.20
34542;DHT22;20784;51.332;12.410;2023-07-13T11:34:34;30.80;90.80
34542;DHT22;20784;51.332;12.410;2023-07-13T11:37:17;30.80;91.10
34542;DHT22;20784;51.332;12.410;2023-07-13T11:40:01;30.80;91.10
34542;DHT22;20784;51.332;12.410;2023-07-13T11:45:46;30.40;90.10
34542;DHT22;20784;51.332;12.410;2023-07-13T11:48:55;30.40;89.80
34542;DHT22;20784;51.332;12.410;2023-07-13T11:51:33;30.30;90.10
34542;DHT22;20784;51.332;12.410;2023-07-13T11:54:41;30.00;89.50
34542;DHT22;20784;51.332;12.410;2023-07-13T11:57:31;29.90;90.30
34542;DHT22;20784;51.332;12.410;2023-07-13T12:27:37;30.80;82.80
34542;DHT22;20784;51.332;12.410;2023-07-13T12:33:15;31.10;79.00
34542;DHT22;20784;51.332;12.410;2023-07-13T12:36:00;31.10;78.70
34542;DHT22;20784;51.332;12.410;2023-07-13T12:38:45;30.70;79.90
34542;DHT22;20784;51.332;12.410;2023-07-13T12:41:16;30.30;79.10
34542;DHT22;20784;51.332;12.410;2023-07-13T12:43:53;29.90;79.20
34542;DHT22;20784;51.332;12.410;2023-07-13T12:46:27;29.20;80.70
34542;DHT22;20784;51.332;12.410;2023-07-13T12:52:32;29.30;79.60
34542;DHT22;20784;51.332;12.410;2023-07-13T13:04:50;29.90;79.80
34542;DHT22;20784;51.332;12.410;2023-07-13T13:17:28;30.70;80.30
34542;DHT22;20784;51.332;12.410;2023-07-13T13:22:58;30.50;80.10
34542;DHT22;20784;51.332;12.410;2023-07-13T13:25:45;30.50;79.40
34542;DHT22;20784;51.332;12.410;2023-07-13T13:28:20;30.50;78.20
34542;DHT22;20784;51.332;12.410;2023-07-13T13:31:01;30.50;80.40
34542;DHT22;20784;51.332;12.410;2023-07-13T13:36:52;30.80;77.50
34542;DHT22;20784;51.332;12.410;2023-07-13T13:41:58;30.30;78.30
34542;DHT22;20784;51.332;12.410;2023-07-13T13:51:11;29.70;80.50
34542;DHT22;20784;51.332;12.410;2023-07-13T13:56:56;30.10;81.00
34542;DHT22;20784;51.332;12.410;2023-07-13T13:59:43;30.30;81.50
34542;DHT22;20784;51.332;12.410;2023-07-13T14:02:44;30.30;82.70
34542;DHT22;20784;51.332;12.410;2023-07-13T14:05:22;30.40;80.70
34542;DHT22;20784;51.332;12.410;2023-07-13T14:08:17;30.50;79.30
34542;DHT22;20784;51.332;12.410;2023-07-13T14:10:47;29.90;78.60
34542;DHT22;20784;51.332;12.410;2023-07-13T14:13:17;29.80;80.00
34542;DHT22;20784;51.332;12.410;2023-07-13T14:15:47;29.80;80.50
34542;DHT22;20784;51.332;12.410;2023-07-13T14:18:13;29.80;80.60
34542;DHT22;20784;51.332;12.410;2023-07-13T14:20:46;29.60;82.10
34542;DHT22;20784;51.332;12.410;2023-07-13T14:23:17;29.60;80.30
34542;DHT22;20784;51.332;12.410;2023-07-13T14:25:44;29.40;81.10
34542;DHT22;20784;51.332;12.410;2023-07-13T14:28:23;29.10;81.00
34542;DHT22;20784;51.332;12.410;2023-07-13T14:30:52;29.10;81.80
34542;DHT22;20784;51.332;12.410;2023-07-13T14:33:20;29.00;82.20
34542;DHT22;20784;51.332;12.410;2023-07-13T14:35:48;29.20;81.90
34542;DHT22;20784;51.332;12.410;2023-07-13T14:38:18;29.10;82.50
34542;DHT22;20784;51.332;12.410;2023-07-13T14:40:52;29.30;82.30
34542;DHT22;20784;51.332;12.410;2023-07-13T14:43:17;29.20;81.70
34542;DHT22;20784;51.332;12.410;2023-07-13T14:45:47;29.30;81.80
34542;DHT22;20784;51.332;12.410;2023-07-13T14:50:44;29.20;81.10
34542;DHT22;20784;51.332;12.410;2023-07-13T14:53:10;29.20;80.70
34542;DHT22;20784;51.332;12.410;2023-07-13T14:55:40;29.30;82.10
34542;DHT22;20784;51.332;12.410;2023-07-13T14:58:06;29.30;81.10
34542;DHT22;20784;51.332;12.410;2023-07-13T15:00:33;29.10;81.60
34542;DHT22;20784;51.332;12.410;2023-07-13T15:03:04;29.00;82.20
34542;DHT22;20784;51.332;12.410;2023-07-13T15:05:47;29.00;82.90
34542;DHT22;20784;51.332;12.410;2023-07-13T15:08:18;29.20;82.00
34542;DHT22;20784;51.332;12.410;2023-07-13T15:10:44;29.10;80.60
34542;DHT22;20784;51.332;12.410;2023-07-13T15:13:20;29.00;80.90
34542;DHT22;20784;51.332;12.410;2023-07-13T15:15:47;28.90;81.80
34542;DHT22;20784;51.332;12.410;2023-07-13T15:18:14;28.70;81.80
34542;DHT22;20784;51.332;12.410;2023-07-13T15:20:43;28.50;82.00
34542;DHT22;20784;51.332;12.410;2023-07-13T15:23:11;28.50;81.90
34542;DHT22;20784;51.332;12.410;2023-07-13T15:25:42;28.40;82.00
34542;DHT22;20784;51.332;12.410;2023-07-13T15:28:09;28.50;82.50
34542;DHT22;20784;51.332;12.410;2023-07-13T15:30:36;28.60;82.60
34542;DHT22;20784;51.332;12.410;2023-07-13T15:35:50;28.60;81.60
34542;DHT22;20784;51.332;12.410;2023-07-13T15:38:20;28.30;81.30
34542;DHT22;20784;51.332;12.410;2023-07-13T15:40:46;28.30;82.00
34542;DHT22;20784;51.332;12.410;2023-07-13T15:43:12;28.30;81.90
34542;DHT22;20784;51.332;12.410;2023-07-13T15:45:44;28.30;83.00
34542;DHT22;20784;51.332;12.410;2023-07-13T15:48:23;28.20;82.20
34542;DHT22;20784;51.332;12.410;2023-07-13T15:50:53;28.10;83.00
34542;DHT22;20784;51.332;12.410;2023-07-13T15:53:29;28.10;83.50
34542;DHT22;20784;51.332;12.410;2023-07-13T15:55:55;28.10;83.80
34542;DHT22;20784;51.332;12.410;2023-07-13T15:58:20;28.10;83.00
34542;DHT22;20784;51.332;12.410;2023-07-13T16:00:50;28.20;84.20
34542;DHT22;20784;51.332;12.410;2023-07-13T16:03:17;28.10;84.00
34542;DHT22;20784;51.332;12.410;2023-07-13T16:05:42;28.30;84.10
34542;DHT22;20784;51.332;12.410;2023-07-13T16:08:24;28.30;83.80
34542;DHT22;20784;51.332;12.410;2023-07-13T16:10:50;28.20;82.90
34542;DHT22;20784;51.332;12.410;2023-07-13T16:13:16;28.00;83.00
34542;DHT22;20784;51.332;12.410;2023-07-13T16:15:46;27.90;83.40
34542;DHT22;20784;51.332;12.410;2023-07-13T16:18:15;27.80;83.80
34542;DHT22;20784;51.332;12.410;2023-07-13T16:20:53;27.80;84.20
34542;DHT22;20784;51.332;12.410;2023-07-13T16:23:28;27.60;83.80
34542;DHT22;20784;51.332;12.410;2023-07-13T16:29:24;27.50;84.30
34542;DHT22;20784;51.332;12.410;2023-07-13T16:32:05;27.50;84.40
34542;DHT22;20784;51.332;12.410;2023-07-13T16:34:34;27.60;83.90
34542;DHT22;20784;51.332;12.410;2023-07-13T16:37:01;27.40;83.90
34542;DHT22;20784;51.332;12.410;2023-07-13T16:39:28;27.40;84.90
34542;DHT22;20784;51.332;12.410;2023-07-13T16:41:54;27.40;86.10
34542;DHT22;20784;51.332;12.410;2023-07-13T16:47:14;27.40;87.20
34542;DHT22;20784;51.332;12.410;2023-07-13T16:49:56;27.40;87.30
34542;DHT22;20784;51.332;12.410;2023-07-13T16:55:17;27.10;88.20
34542;DHT22;20784;51.332;12.410;2023-07-13T16:57:58;27.10;88.60
34542;DHT22;20784;51.332;12.410;2023-07-13T17:00:32;26.90;88.60
34542;DHT22;20784;51.332;12.410;2023-07-13T17:02:59;26.90;89.00
34542;DHT22;20784;51.332;12.410;2023-07-13T17:05:40;26.80;89.10
34542;DHT22;20784;51.332;12.410;2023-07-13T17:08:25;26.70;90.00
34542;DHT22;20784;51.332;12.410;2023-07-13T17:10:58;26.60;89.60
34542;DHT22;20784;51.332;12.410;2023-07-13T17:13:30;26.60;89.60
34542;DHT22;20784;51.332;12.410;2023-07-13T17:15:58;26.50;90.10
34542;DHT22;20784;51.332;12.410;2023-07-13T17:20:55;26.50;90.40
34542;DHT22;20784;51.332;12.410;2023-07-13T17:23:32;26.50;90.50
34542;DHT22;20784;51.332;12.410;2023-07-13T17:26:04;26.50;90.50
34542;DHT22;20784;51.332;12.410;2023-07-13T17:31:23;26.20;90.60
34542;DHT22;20784;51.332;12.410;2023-07-13T17:33:51;26.20;90.80
34542;DHT22;20784;51.332;12.410;2023-07-13T17:36:30;26.20;91.00
34542;DHT22;20784;51.332;12.410;2023-07-13T17:39:01;26.20;90.90
34542;DHT22;20784;51.332;12.410;2023-07-13T17:41:37;26.10;91.20
34542;DHT22;20784;51.332;12.410;2023-07-13T17:44:08;26.10;91.40
34542;DHT22;20784;51.332;12.410;2023-07-13T17:46:46;26.10;91.40
34542;DHT22;20784;51.332;12.410;2023-07-13T17:49:25;26.10;91.30
34542;DHT22;20784;51.332;12.410;2023-07-13T17:52:19;26.10;91.60
34542;DHT22;20784;51.332;12.410;2023-07-13T17:54:48;25.90;91.80
34542;DHT22;20784;51.332;12.410;2023-07-13T17:57:17;25.80;92.00
34542;DHT22;20784;51.332;12.410;2023-07-13T18:00:12;25.80;91.90
34542;DHT22;20784;51.332;12.410;2023-07-13T18:02:57;25.70;92.20
34542;DHT22;20784;51.332;12.410;2023-07-13T18:05:26;25.70;92.40
34542;DHT22;20784;51.332;12.410;2023-07-13T18:07:59;25.70;92.60
34542;DHT22;20784;51.332;12.410;2023-07-13T18:10:33;25.80;92.70
34542;DHT22;20784;51.332;12.410;2023-07-13T18:13:06;25.70;92.60
34542;DHT22;20784;51.332;12.410;2023-07-13T18:21:50;25.50;93.10
34542;DHT22;20784;51.332;12.410;2023-07-13T18:24:16;25.40;93.10
34542;DHT22;20784;51.332;12.410;2023-07-13T18:26:45;25.50;93.20
34542;DHT22;20784;51.332;12.410;2023-07-13T18:29:16;25.50;93.30
34542;DHT22;20784;51.332;12.410;2023-07-13T18:31:44;25.30;93.30
34542;DHT22;20784;51.332;12.410;2023-07-13T18:34:10;25.30;93.60
34542;DHT22;20784;51.332;12.410;2023-07-13T18:36:42;25.20;93.70
34542;DHT22;20784;51.332;12.410;2023-07-13T18:39:14;25.20;93.80
34542;DHT22;20784;51.332;12.410;2023-07-13T18:41:45;25.20;93.90
34542;DHT22;20784;51.332;12.410;2023-07-13T18:44:31;25.10;94.00
34542;DHT22;20784;51.332;12.410;2023-07-13T18:47:22;25.00;94.10
34542;DHT22;20784;51.332;12.410;2023-07-13T18:49:48;25.00;94.20
34542;DHT22;20784;51.332;12.410;2023-07-13T18:52:22;25.00;94.30
34542;DHT22;20784;51.332;12.410;2023-07-13T18:54:48;24.90;94.30
34542;DHT22;20784;51.332;12.410;2023-07-13T18:57:16;24.90;94.50
34542;DHT22;20784;51.332;12.410;2023-07-13T18:59:42;24.70;94.70
34542;DHT22;20784;51.332;12.410;2023-07-13T19:02:14;24.50;96.40
34542;DHT22;20784;51.332;12.410;2023-07-13T19:04:40;24.20;98.30
34542;DHT22;20784;51.332;12.410;2023-07-13T19:07:12;23.90;99.70
34542;DHT22;20784;51.332;12.410;2023-07-13T19:09:38;23.70;99.90
34542;DHT22;20784;51.332;12.410;2023-07-13T19:12:23;23.50;99.90
34542;DHT22;20784;51.332;12.410;2023-07-13T19:14:51;23.30;99.90
34542;DHT22;20784;51.332;12.410;2023-07-13T19:17:17;23.00;99.90
34542;DHT22;20784;51.332;12.410;2023-07-13T19:19:48;22.70;99.90
34542;DHT22;20784;51.332;12.410;2023-07-13T19:22:22;22.50;99.90
34542;DHT22;20784;51.332;12.410;2023-07-13T19:24:57;22.40;99.90
34542;DHT22;20784;51.332;12.410;2023-07-13T19:27:23;22.30;99.90
34542;DHT22;20784;51.332;12.410;2023-07-13T19:29:48;22.20;99.90
34542;DHT22;20784;51.332;12.410;2023-07-13T19:32:35;22.20;99.90
34542;DHT22;20784;51.332;12.410;2023-07-13T19:35:01;22.00;99.90
34542;DHT22;20784;51.332;12.410;2023-07-13T19:37:40;22.00;99.90
34542;DHT22;20784;51.332;12.410;2023-07-13T19:40:23;21.90;99.90
34542;DHT22;20784;51.332;12.410;2023-07-13T19:42:49;21.70;99.90
34542;DHT22;20784;51.332;12.410;2023-07-13T19:45:25;21.70;99.90
34542;DHT22;20784;51.332;12.410;2023-07-13T19:47:50;21.60;99.90